createdAt,value
2022-09-13T00:01:14.033Z,92944.06
2022-09-13T00:04:18.200Z,92950.03
2022-09-13T00:07:21.536Z,92958.69
2022-09-13T00:10:27.210Z,92968.09
2022-09-13T00:13:31.274Z,92961.97
2022-09-13T00:16:35.482Z,92965.22
2022-09-13T00:19:39.151Z,92959.69
2022-09-13T00:22:43.355Z,92958.91
2022-09-13T00:25:47.018Z,92965.53
2022-09-13T00:28:55.569Z,92958.59
2022-09-13T00:31:59.304Z,92963.16
2022-09-13T00:35:05.300Z,92959.59
2022-09-13T00:38:08.632Z,92959.38
2022-09-13T00:41:15.949Z,92964.53
2022-09-13T00:44:56.181Z,92963.28
2022-09-13T00:48:06.300Z,92958.91
2022-09-13T00:51:11.432Z,92962.44
2022-09-13T00:54:18.047Z,92969.91
2022-09-13T00:57:23.278Z,92962.97
2022-09-13T01:00:27.582Z,92970.22
2022-09-13T01:03:34.825Z,92979.84
2022-09-13T01:06:41.551Z,92982.31
2022-09-13T01:09:50.120Z,92989.00
2022-09-13T01:13:17.309Z,92999.09
2022-09-13T01:16:21.220Z,92989.06
2022-09-13T01:19:25.369Z,92996.81
2022-09-13T01:23:22.450Z,93000.03
2022-09-13T01:26:44.471Z,93020.41
2022-09-13T01:30:18.638Z,93014.09
2022-09-13T01:33:46.702Z,92993.72
2022-09-13T01:36:56.406Z,93001.22
2022-09-13T01:40:19.675Z,93009.44
2022-09-13T01:43:28.551Z,93010.72
2022-09-13T01:46:43.920Z,93013.97
2022-09-13T01:50:01.665Z,93032.44
2022-09-13T01:53:21.488Z,93030.22
2022-09-13T01:56:33.865Z,93032.72
2022-09-13T01:59:51.012Z,93039.50
2022-09-13T02:03:04.869Z,93030.00
2022-09-13T02:06:23.293Z,93051.28
2022-09-13T02:09:29.442Z,93062.25
2022-09-13T02:12:38.531Z,93064.69
2022-09-13T02:15:48.792Z,93074.69
2022-09-13T02:18:58.487Z,93078.34
2022-09-13T02:22:04.066Z,93082.59
2022-09-13T02:25:11.419Z,93083.09
2022-09-13T02:28:19.975Z,93062.16
2022-09-13T02:31:31.420Z,93075.34
2022-09-13T02:34:41.414Z,93090.25
2022-09-13T02:37:48.095Z,93081.94
2022-09-13T02:41:02.680Z,93106.28
2022-09-13T02:44:15.759Z,93094.13
2022-09-13T02:47:57.910Z,93108.78
2022-09-13T02:51:01.661Z,93105.81
2022-09-13T02:54:19.261Z,93109.97
2022-09-13T02:57:39.002Z,93114.38
2022-09-13T03:00:46.750Z,93109.81
2022-09-13T03:03:54.648Z,93120.66
2022-09-13T03:06:58.870Z,93122.78
2022-09-13T03:10:08.230Z,93132.94
2022-09-13T03:13:42.790Z,93149.50
2022-09-13T03:17:01.081Z,93146.69
2022-09-13T03:20:08.940Z,93148.16
2022-09-13T03:23:30.748Z,93150.75
2022-09-13T03:26:52.617Z,93136.09
2022-09-13T03:30:09.103Z,93141.69
2022-09-13T03:33:32.319Z,93148.97
2022-09-13T03:37:02.481Z,93168.22
2022-09-13T03:40:17.738Z,93158.22
2022-09-13T03:43:28.089Z,93168.44
2022-09-13T03:46:35.829Z,93180.25
2022-09-13T03:49:40.375Z,93177.53
2022-09-13T03:52:46.656Z,93182.41
2022-09-13T03:55:50.547Z,93181.09
2022-09-13T03:58:54.753Z,93175.16
2022-09-13T04:01:58.552Z,93181.81
2022-09-13T04:05:02.675Z,93178.81
2022-09-13T04:08:08.102Z,93178.47
2022-09-13T04:11:12.577Z,93181.19
2022-09-13T04:14:16.798Z,93175.59
2022-09-13T04:17:20.921Z,93175.34
2022-09-13T04:20:25.364Z,93189.44
2022-09-13T04:23:30.933Z,93182.78
2022-09-13T04:26:36.262Z,93183.41
2022-09-13T04:29:40.347Z,93197.81
2022-09-13T04:32:45.027Z,93201.53
2022-09-13T04:35:48.742Z,93203.84
2022-09-13T04:38:52.423Z,93216.44
2022-09-13T04:41:56.410Z,93221.19
2022-09-13T04:45:00.395Z,93220.81
2022-09-13T04:48:04.544Z,93231.16
2022-09-13T04:51:08.527Z,93227.22
2022-09-13T04:54:15.894Z,93219.72
2022-09-13T04:57:20.141Z,93228.75
2022-09-13T05:00:25.942Z,93228.28
2022-09-13T05:03:33.834Z,93231.44
2022-09-13T05:06:37.660Z,93247.34
2022-09-13T05:09:41.783Z,93242.03
2022-09-13T05:12:45.327Z,93257.81
2022-09-13T05:15:49.083Z,93260.03
2022-09-13T05:18:53.409Z,93269.50
2022-09-13T05:21:57.020Z,93271.66
2022-09-13T05:25:01.085Z,93265.00
2022-09-13T05:28:04.062Z,93290.97
2022-09-13T05:31:11.509Z,93298.94
2022-09-13T05:34:18.176Z,93307.97
2022-09-13T05:37:22.232Z,93300.13
2022-09-13T05:40:25.630Z,93302.97
2022-09-13T05:43:33.597Z,93301.59
2022-09-13T05:46:38.007Z,93297.88
2022-09-13T05:50:08.379Z,93298.94
2022-09-13T05:53:06.805Z,93317.94
2022-09-13T05:56:16.807Z,93314.25
2022-09-13T05:59:20.622Z,93331.53
2022-09-13T06:02:24.689Z,93339.44
2022-09-13T06:05:31.730Z,93351.59
2022-09-13T06:08:36.272Z,93356.19
2022-09-13T06:11:40.253Z,93362.56
2022-09-13T06:14:44.237Z,93363.13
2022-09-13T06:17:47.187Z,93363.22
2022-09-13T06:20:51.612Z,93383.75
2022-09-13T06:23:55.305Z,93373.88
2022-09-13T06:26:59.480Z,93376.22
2022-09-13T06:30:02.569Z,93370.94
2022-09-13T06:33:06.321Z,93396.09
2022-09-13T06:36:15.728Z,93397.31
2022-09-13T06:39:19.693Z,93391.09
2022-09-13T06:42:23.486Z,93397.94
2022-09-13T06:45:28.013Z,93400.50
2022-09-13T06:48:32.895Z,93399.13
2022-09-13T06:51:37.021Z,93407.53
2022-09-13T06:54:39.989Z,93402.31
2022-09-13T06:57:43.001Z,93406.78
2022-09-13T07:00:46.054Z,93401.75
2022-09-13T07:03:52.082Z,93402.31
2022-09-13T07:06:56.160Z,93400.13
2022-09-13T07:10:01.609Z,93411.75
2022-09-13T07:13:05.284Z,93401.38
2022-09-13T07:16:12.217Z,93408.25
2022-09-13T07:19:18.961Z,93410.66
2022-09-13T07:22:27.613Z,93422.09
2022-09-13T07:25:31.536Z,93418.06
2022-09-13T07:28:37.487Z,93443.56
2022-09-13T07:31:42.996Z,93428.47
2022-09-13T07:34:46.371Z,93454.41
2022-09-13T07:37:50.447Z,93456.78
2022-09-13T07:40:58.669Z,93472.41
2022-09-13T07:44:02.734Z,93470.72
2022-09-13T07:47:06.767Z,93470.75
2022-09-13T07:50:10.913Z,93479.41
2022-09-13T07:53:14.633Z,93490.00
2022-09-13T07:56:23.924Z,93502.00
2022-09-13T07:59:30.174Z,93518.06
2022-09-13T08:02:33.984Z,93506.00
2022-09-13T08:05:41.314Z,93515.44
2022-09-13T08:08:45.886Z,93501.47
2022-09-13T08:11:53.539Z,93505.75
2022-09-13T08:14:57.245Z,93513.88
2022-09-13T08:18:01.294Z,93523.25
2022-09-13T08:21:04.944Z,93514.59
2022-09-13T08:24:14.784Z,93517.78
2022-09-13T08:27:18.473Z,93526.13
2022-09-13T08:30:22.639Z,93533.97
2022-09-13T08:33:26.598Z,93526.38
2022-09-13T08:36:31.784Z,93547.97
2022-09-13T08:39:35.303Z,93551.69
2022-09-13T08:42:54.851Z,93567.53
2022-09-13T08:46:05.624Z,93570.16
2022-09-13T08:49:22.122Z,93578.72
2022-09-13T08:52:33.747Z,93604.84
2022-09-13T08:56:09.249Z,93600.03
2022-09-13T08:59:46.896Z,93616.97
2022-09-13T09:02:59.338Z,93621.59
2022-09-13T09:06:02.621Z,93626.09
2022-09-13T09:09:17.588Z,93645.22
2022-09-13T09:12:39.335Z,93637.19
2022-09-13T09:15:50.134Z,93646.94
2022-09-13T09:18:55.897Z,93663.47
2022-09-13T09:22:00.348Z,93661.66
2022-09-13T09:25:05.372Z,93649.88
2022-09-13T09:28:17.365Z,93656.59
2022-09-13T09:31:43.833Z,93650.63
2022-09-13T09:35:08.230Z,93651.31
2022-09-13T09:38:31.779Z,93671.28
2022-09-13T09:41:39.365Z,93671.72
2022-09-13T09:44:45.994Z,93678.09
2022-09-13T09:47:52.606Z,93686.00
2022-09-13T09:50:59.195Z,93684.78
2022-09-13T09:54:07.234Z,93686.09
2022-09-13T09:57:12.004Z,93686.50
2022-09-13T10:00:16.531Z,93698.47
2022-09-13T10:03:33.024Z,93706.50
2022-09-13T10:06:39.443Z,93712.13
2022-09-13T10:10:04.928Z,93718.53
2022-09-13T10:13:17.918Z,93730.81
2022-09-13T10:16:29.828Z,93745.56
2022-09-13T10:19:34.557Z,93759.00
2022-09-13T10:22:38.987Z,93778.28
2022-09-13T10:25:58.872Z,93785.19
2022-09-13T10:29:09.797Z,93803.31
2022-09-13T10:32:14.550Z,93810.38
2022-09-13T10:35:19.714Z,93809.38
2022-09-13T10:38:46.169Z,93816.09
2022-09-13T10:42:08.484Z,93823.16
2022-09-13T10:45:23.841Z,93833.59
2022-09-13T10:48:29.667Z,93830.34
2022-09-13T10:51:37.811Z,93837.81
2022-09-13T10:54:41.612Z,93845.50
2022-09-13T10:57:51.229Z,93844.94
2022-09-13T11:01:18.899Z,93853.91
2022-09-13T11:04:31.533Z,93854.03
2022-09-13T11:07:57.324Z,93862.28
2022-09-13T11:11:42.319Z,93865.03
2022-09-13T11:14:56.969Z,93865.13
2022-09-13T11:18:19.220Z,93883.59
2022-09-13T11:21:31.467Z,93889.88
2022-09-13T11:24:41.823Z,93878.34
2022-09-13T11:28:14.364Z,93882.31
2022-09-13T11:31:46.049Z,93874.97
2022-09-13T11:34:52.821Z,93891.94
2022-09-13T11:38:20.507Z,93892.75
2022-09-13T11:42:04.933Z,93889.44
2022-09-13T11:45:23.536Z,93884.81
2022-09-13T11:48:38.752Z,93875.41
2022-09-13T11:52:01.532Z,93888.97
2022-09-13T11:55:40.439Z,93891.69
2022-09-13T11:58:56.797Z,93916.13
2022-09-13T12:02:06.433Z,93924.28
2022-09-13T12:05:24.271Z,93936.56
2022-09-13T12:08:44.018Z,93934.53
2022-09-13T12:11:57.092Z,93953.50
2022-09-13T12:15:16.587Z,93955.56
2022-09-13T12:18:35.224Z,93954.25
2022-09-13T12:21:42.112Z,93959.03
2022-09-13T12:24:51.255Z,93957.69
2022-09-13T12:27:54.793Z,93955.00
2022-09-13T12:31:11.080Z,93951.63
2022-09-13T12:34:29.411Z,93976.66
2022-09-13T12:38:11.364Z,93984.81
2022-09-13T12:41:31.704Z,94001.03
2022-09-13T12:45:00.074Z,94015.94
2022-09-13T12:48:24.360Z,94007.16
2022-09-13T12:51:44.481Z,94011.22
2022-09-13T12:55:03.785Z,94032.84
2022-09-13T12:58:42.718Z,94037.59
2022-09-13T13:01:50.610Z,94055.84
2022-09-13T13:04:59.868Z,94071.38
2022-09-13T13:08:08.234Z,94076.13
2022-09-13T13:11:14.931Z,94075.44
2022-09-13T13:14:40.586Z,94066.63
2022-09-13T13:17:48.257Z,94074.72
2022-09-13T13:20:57.330Z,94070.00
2022-09-13T13:24:21.328Z,94072.66
2022-09-13T13:27:45.000Z,94078.75
2022-09-13T13:30:54.478Z,94086.84
2022-09-13T13:34:03.898Z,94092.91
2022-09-13T13:37:10.528Z,94099.00
2022-09-13T13:40:26.869Z,94086.13
2022-09-13T13:43:34.825Z,94100.31
2022-09-13T13:46:38.873Z,94100.25
2022-09-13T13:49:46.740Z,94089.44
2022-09-13T13:52:56.386Z,94076.63
2022-09-13T13:56:29.185Z,94086.69
2022-09-13T13:59:34.104Z,94100.81
2022-09-13T14:03:06.246Z,94101.50
2022-09-13T14:06:30.894Z,94098.06
2022-09-13T14:09:41.520Z,94104.13
2022-09-13T14:12:48.109Z,94098.69
2022-09-13T14:16:01.885Z,94091.88
2022-09-13T14:19:25.375Z,94101.25
2022-09-13T14:22:29.910Z,94104.59
2022-09-13T14:25:33.925Z,94104.53
2022-09-13T14:28:37.728Z,94097.13
2022-09-13T14:31:41.558Z,94097.72
2022-09-13T14:34:55.128Z,94105.88
2022-09-13T14:38:19.125Z,94109.25
2022-09-13T14:41:30.153Z,94103.84
2022-09-13T14:44:33.146Z,94111.91
2022-09-13T14:47:54.843Z,94117.97
2022-09-13T14:51:03.347Z,94127.38
2022-09-13T14:54:16.522Z,94121.97
2022-09-13T14:57:38.426Z,94110.50
2022-09-13T15:01:09.685Z,94115.22
2022-09-13T15:04:13.645Z,94118.53
2022-09-13T15:07:28.355Z,94127.94
2022-09-13T15:10:45.120Z,94127.19
2022-09-13T15:14:01.235Z,94127.06
2022-09-13T15:17:08.053Z,94123.56
2022-09-13T15:20:13.664Z,94122.19
2022-09-13T15:23:27.428Z,94123.50
2022-09-13T15:26:32.192Z,94122.09
2022-09-13T15:29:38.376Z,94129.50
2022-09-13T15:32:44.015Z,94136.19
2022-09-13T15:35:49.031Z,94130.03
2022-09-13T15:39:10.292Z,94142.84
2022-09-13T15:42:13.369Z,94154.81
2022-09-13T15:45:18.656Z,94152.84
2022-09-13T15:48:31.869Z,94154.94
2022-09-13T15:51:39.070Z,94158.28
2022-09-13T15:54:44.292Z,94167.75
2022-09-13T15:57:48.494Z,94164.34
2022-09-13T16:00:52.095Z,94175.03
2022-09-13T16:03:55.893Z,94168.19
2022-09-13T16:06:59.258Z,94170.84
2022-09-13T16:10:02.359Z,94170.16
2022-09-13T16:13:06.088Z,94172.06
2022-09-13T16:16:14.453Z,94170.72
2022-09-13T16:19:21.446Z,94174.69
2022-09-13T16:22:25.224Z,94175.22
2022-09-13T16:25:28.289Z,94179.13
2022-09-13T16:28:32.134Z,94164.97
2022-09-13T16:31:36.014Z,94178.50
2022-09-13T16:34:40.086Z,94185.91
2022-09-13T16:37:45.149Z,94185.91
2022-09-13T16:40:48.225Z,94184.47
2022-09-13T16:43:52.311Z,94195.03
2022-09-13T16:46:56.059Z,94196.25
2022-09-13T16:49:59.427Z,94194.94
2022-09-13T16:53:03.362Z,94200.94
2022-09-13T16:56:19.780Z,94198.28
2022-09-13T16:59:23.370Z,94192.19
2022-09-13T17:02:28.452Z,94186.78
2022-09-13T17:05:32.453Z,94193.41
2022-09-13T17:08:38.579Z,94193.41
2022-09-13T17:11:43.327Z,94198.66
2022-09-13T17:14:48.398Z,94195.19
2022-09-13T17:17:52.121Z,94196.44
2022-09-13T17:20:56.083Z,94202.31
2022-09-13T17:24:00.140Z,94207.78
2022-09-13T17:27:07.739Z,94209.16
2022-09-13T17:30:35.154Z,94213.84
2022-09-13T17:33:39.377Z,94204.41
2022-09-13T17:36:43.429Z,94198.94
2022-09-13T17:39:47.934Z,94200.94
2022-09-13T17:42:51.590Z,94215.56
2022-09-13T17:45:54.586Z,94217.63
2022-09-13T17:48:59.606Z,94217.59
2022-09-13T17:52:04.349Z,94230.28
2022-09-13T17:55:08.567Z,94242.41
2022-09-13T17:58:11.883Z,94247.88
2022-09-13T18:01:15.776Z,94249.19
2022-09-13T18:04:22.314Z,94248.50
2022-09-13T18:07:25.782Z,94253.25
2022-09-13T18:10:49.260Z,94249.84
2022-09-13T18:13:52.810Z,94248.59
2022-09-13T18:16:58.850Z,94252.63
2022-09-13T18:20:02.701Z,94253.84
2022-09-13T18:23:07.016Z,94264.00
2022-09-13T18:26:15.502Z,94258.66
2022-09-13T18:29:19.728Z,94263.63
2022-09-13T18:32:22.963Z,94266.06
2022-09-13T18:35:27.091Z,94257.91
2022-09-13T18:38:36.112Z,94264.81
2022-09-13T18:41:41.648Z,94272.38
2022-09-13T18:44:45.343Z,94280.53
2022-09-13T18:47:49.396Z,94286.59
2022-09-13T18:50:53.077Z,94275.84
2022-09-13T18:53:57.550Z,94283.16
2022-09-13T18:57:01.032Z,94277.00
2022-09-13T19:00:05.931Z,94278.31
2022-09-13T19:03:12.763Z,94278.25
2022-09-13T19:06:18.557Z,94281.00
2022-09-13T19:09:23.364Z,94290.38
2022-09-13T19:12:27.247Z,94284.97
2022-09-13T19:15:31.589Z,94287.06
2022-09-13T19:18:37.635Z,94290.50
2022-09-13T19:21:41.715Z,94272.94
2022-09-13T19:24:45.749Z,94270.94
2022-09-13T19:27:49.267Z,94277.00
2022-09-13T19:30:53.333Z,94282.31
2022-09-13T19:33:58.250Z,94283.50
2022-09-13T19:37:02.874Z,94278.09
2022-09-13T19:40:07.310Z,94277.41
2022-09-13T19:43:11.444Z,94282.19
2022-09-13T19:46:16.456Z,94278.84
2022-09-13T19:49:20.597Z,94280.78
2022-09-13T19:52:24.282Z,94274.81
2022-09-13T19:55:28.478Z,94278.78
2022-09-13T19:58:32.484Z,94273.41
2022-09-13T20:01:40.145Z,94278.78
2022-09-13T20:04:43.540Z,94280.09
2022-09-13T20:07:47.551Z,94280.72
2022-09-13T20:10:51.453Z,94286.13
2022-09-13T20:13:56.026Z,94288.28
2022-09-13T20:16:59.969Z,94287.06
2022-09-13T20:20:05.315Z,94288.31
2022-09-13T20:23:09.226Z,94285.59
2022-09-13T20:26:18.591Z,94287.66
2022-09-13T20:29:22.310Z,94296.34
2022-09-13T20:32:26.820Z,94293.56
2022-09-13T20:35:32.700Z,94294.22
2022-09-13T20:38:37.289Z,94296.88
2022-09-13T20:41:41.212Z,94288.91
2022-09-13T20:44:46.791Z,94290.34
2022-09-13T20:47:50.570Z,94298.25
2022-09-13T20:51:01.991Z,94283.59
2022-09-13T20:54:07.105Z,94284.97
2022-09-13T20:57:11.589Z,94274.25
2022-09-13T21:00:15.416Z,94276.31
2022-09-13T21:03:19.465Z,94273.34
2022-09-13T21:06:25.311Z,94274.59
2022-09-13T21:09:30.171Z,94267.09
2022-09-13T21:12:33.988Z,94279.00
2022-09-13T21:15:39.527Z,94281.72
2022-09-13T21:18:44.802Z,94272.34
2022-09-13T21:21:48.314Z,94282.31
2022-09-13T21:24:51.355Z,94276.91
2022-09-13T21:27:55.392Z,94275.59
2022-09-13T21:31:01.434Z,94291.13
2022-09-13T21:34:08.144Z,94300.56
2022-09-13T21:37:11.989Z,94316.06
2022-09-13T21:40:16.252Z,94319.50
2022-09-13T21:43:19.693Z,94328.44
2022-09-13T21:46:32.282Z,94327.09
2022-09-13T21:49:36.060Z,94325.59
2022-09-13T21:52:40.095Z,94329.66
2022-09-13T21:55:44.131Z,94341.81
2022-09-13T21:59:05.328Z,94334.97
2022-09-13T22:02:09.079Z,94345.03
2022-09-13T22:05:13.281Z,94336.25
2022-09-13T22:08:17.059Z,94343.66
2022-09-13T22:11:25.943Z,94328.88
2022-09-13T22:14:29.770Z,94326.84
2022-09-13T22:17:34.251Z,94328.47
2022-09-13T22:20:38.062Z,94318.09
2022-09-13T22:23:42.300Z,94319.84
2022-09-13T22:26:47.469Z,94313.63
2022-09-13T22:29:51.595Z,94327.69
2022-09-13T22:32:55.346Z,94329.16
2022-09-13T22:36:04.254Z,94333.97
2022-09-13T22:39:08.091Z,94333.38
2022-09-13T22:42:12.191Z,94327.31
2022-09-13T22:45:16.328Z,94331.34
2022-09-13T22:48:21.530Z,94334.69
2022-09-13T22:51:26.473Z,94336.88
2022-09-13T22:54:29.893Z,94329.63
2022-09-13T22:57:34.003Z,94331.03
2022-09-13T23:00:38.498Z,94337.16
2022-09-13T23:03:44.493Z,94340.59
2022-09-13T23:06:48.500Z,94342.28
2022-09-13T23:09:52.638Z,94353.97
2022-09-13T23:12:58.313Z,94353.16
2022-09-13T23:16:12.169Z,94331.78
2022-09-13T23:19:17.362Z,94325.94
2022-09-13T23:22:21.169Z,94329.50
2022-09-13T23:25:24.891Z,94310.09
2022-09-13T23:28:28.696Z,94300.16
2022-09-13T23:31:35.316Z,94288.66
2022-09-13T23:34:39.101Z,94309.59
2022-09-13T23:37:44.386Z,94300.28
2022-09-13T23:40:48.575Z,94305.72
2022-09-13T23:43:54.258Z,94316.66
2022-09-13T23:46:58.121Z,94343.59
2022-09-13T23:50:02.327Z,94342.03
2022-09-13T23:53:06.198Z,94330.81
2022-09-13T23:56:10.717Z,94341.47
2022-09-13T23:59:14.654Z,94371.81
